createdAt,value
2022-11-28T00:03:07.956Z,100316.00
2022-11-28T00:08:09.529Z,100302.97
2022-11-28T00:13:10.919Z,100306.97
2022-11-28T00:18:12.290Z,100293.13
2022-11-28T00:23:13.671Z,100292.13
2022-11-28T00:28:15.076Z,100280.34
2022-11-28T00:33:16.460Z,100272.41
2022-11-28T00:38:17.879Z,100263.78
2022-11-28T00:43:19.300Z,100254.63
2022-11-28T00:48:20.791Z,100258.16
2022-11-28T00:53:22.192Z,100248.47
2022-11-28T00:58:23.575Z,100245.97
2022-11-28T01:03:24.981Z,100253.34
2022-11-28T01:08:27.032Z,100246.44
2022-11-28T01:13:28.420Z,100234.72
2022-11-28T01:18:29.800Z,100234.47
2022-11-28T01:23:31.176Z,100224.41
2022-11-28T01:28:33.308Z,100222.53
2022-11-28T01:33:34.685Z,100220.00
2022-11-28T01:38:36.067Z,100209.50
2022-11-28T01:43:37.508Z,100208.44
2022-11-28T01:48:40.076Z,100209.94
2022-11-28T01:53:42.727Z,100198.66
2022-11-28T01:58:45.883Z,100199.91
2022-11-28T02:03:48.192Z,100196.31
2022-11-28T02:08:53.207Z,100181.88
2022-11-28T02:14:18.763Z,100178.69
2022-11-28T02:19:51.279Z,100165.91
2022-11-28T02:25:09.965Z,100168.50
2022-11-28T02:30:34.036Z,100158.03
2022-11-28T02:35:59.033Z,100149.03
2022-11-28T02:41:15.564Z,100151.91
2022-11-28T02:46:33.780Z,100149.19
2022-11-28T02:51:55.964Z,100137.69
2022-11-28T02:56:57.381Z,100140.19
2022-11-28T03:01:59.309Z,100132.81
2022-11-28T03:07:38.363Z,100130.09
2022-11-28T03:13:14.630Z,100127.38
2022-11-28T03:18:23.291Z,100127.63
2022-11-28T03:23:37.909Z,100121.59
2022-11-28T03:28:49.099Z,100118.16
2022-11-28T03:33:58.379Z,100108.75
2022-11-28T03:39:03.211Z,100114.38
2022-11-28T03:44:06.891Z,100103.09
2022-11-28T03:49:09.315Z,100102.41
2022-11-28T03:54:13.035Z,100102.78
2022-11-28T03:59:17.996Z,100096.63
2022-11-28T04:04:48.145Z,100092.72
2022-11-28T04:09:51.800Z,100090.06
2022-11-28T04:14:55.414Z,100096.59
2022-11-28T04:20:08.215Z,100086.75
2022-11-28T04:25:14.839Z,100093.88
2022-11-28T04:30:16.234Z,100089.69
2022-11-28T04:35:31.294Z,100086.16
2022-11-28T04:40:34.535Z,100096.97
2022-11-28T04:45:42.937Z,100080.47
2022-11-28T04:50:49.937Z,100073.59
2022-11-28T04:56:03.356Z,100078.13
2022-11-28T05:01:06.238Z,100070.78
2022-11-28T05:06:07.680Z,100062.00
2022-11-28T05:11:09.100Z,100067.22
2022-11-28T05:16:11.246Z,100066.41
2022-11-28T05:21:12.803Z,100059.53
2022-11-28T05:26:16.300Z,100049.09
2022-11-28T05:31:19.076Z,100052.78
2022-11-28T05:36:20.810Z,100053.03
2022-11-28T05:41:26.557Z,100048.16
2022-11-28T05:46:28.295Z,100039.75
2022-11-28T05:51:29.669Z,100036.81
2022-11-28T05:56:31.031Z,100032.66
2022-11-28T06:01:32.428Z,100032.88
2022-11-28T06:06:34.471Z,100023.84
2022-11-28T06:11:35.890Z,100017.34
2022-11-28T06:16:38.353Z,100006.84
2022-11-28T06:21:39.804Z,100009.56
2022-11-28T06:26:41.174Z,100015.59
2022-11-28T06:31:42.623Z,100011.00
2022-11-28T06:36:44.763Z,100015.00
2022-11-28T06:41:46.184Z,100003.03
2022-11-28T06:46:47.643Z,100007.06
2022-11-28T06:51:49.033Z,100042.94
2022-11-28T06:56:50.455Z,99985.66
2022-11-28T07:01:51.843Z,99983.06
2022-11-28T07:06:53.291Z,99982.88
2022-11-28T07:11:54.984Z,99973.41
2022-11-28T07:16:56.441Z,99951.69
2022-11-28T07:21:57.838Z,99962.03
2022-11-28T07:26:59.210Z,99954.31
2022-11-28T07:32:00.610Z,99955.16
2022-11-28T07:37:02.232Z,99946.38
2022-11-28T07:42:03.642Z,99941.06
2022-11-28T07:47:05.145Z,99936.34
2022-11-28T07:52:06.664Z,99943.47
2022-11-28T07:57:12.066Z,99934.66
2022-11-28T08:02:14.645Z,99918.53
2022-11-28T08:07:16.129Z,99910.84
2022-11-28T08:12:17.569Z,99921.75
2022-11-28T08:17:18.955Z,99902.75
2022-11-28T08:22:20.321Z,99921.75
2022-11-28T08:27:21.700Z,99925.53
2022-11-28T08:32:23.069Z,99916.19
2022-11-28T08:37:24.480Z,99907.75
2022-11-28T08:42:25.901Z,99919.81
2022-11-28T08:47:27.269Z,99912.16
2022-11-28T08:52:28.719Z,99917.72
2022-11-28T08:57:30.099Z,99907.63
2022-11-28T09:02:31.484Z,99925.78
2022-11-28T09:07:32.880Z,99941.78
2022-11-28T09:12:34.318Z,99934.78
2022-11-28T09:17:35.700Z,99944.97
2022-11-28T09:22:37.071Z,99934.53
2022-11-28T09:27:38.517Z,99944.28
2022-11-28T09:32:39.910Z,99924.25
2022-11-28T09:37:41.392Z,99936.09
2022-11-28T09:42:43.945Z,99917.13
2022-11-28T09:47:56.162Z,99910.94
2022-11-28T09:53:16.228Z,99905.00
2022-11-28T09:58:39.307Z,99914.28
2022-11-28T10:03:51.258Z,99920.22
2022-11-28T10:09:24.521Z,99902.28
2022-11-28T10:14:54.026Z,99902.03
2022-11-28T10:20:03.459Z,99886.59
2022-11-28T10:25:11.123Z,99880.06
2022-11-28T10:30:18.199Z,99908.66
2022-11-28T10:35:43.484Z,99903.44
2022-11-28T10:40:50.889Z,99917.31
2022-11-28T10:46:21.361Z,99896.69
2022-11-28T10:51:44.560Z,99907.94
2022-11-28T10:57:15.200Z,99906.53
2022-11-28T11:02:30.332Z,99901.06
2022-11-28T11:07:34.765Z,99909.84
2022-11-28T11:12:36.316Z,99894.41
2022-11-28T11:17:37.803Z,99887.63
2022-11-28T11:22:39.195Z,99876.97
2022-11-28T11:27:51.084Z,99876.22
2022-11-28T11:32:52.796Z,99878.72
2022-11-28T11:37:54.927Z,99888.81
2022-11-28T11:42:58.106Z,99893.22
2022-11-28T11:47:59.540Z,99889.53
2022-11-28T11:53:10.733Z,99861.75
2022-11-28T11:58:12.992Z,99867.69
2022-11-28T12:03:24.070Z,99877.53
2022-11-28T12:08:32.788Z,99871.13
2022-11-28T12:13:34.169Z,99869.81
2022-11-28T12:18:56.873Z,99860.28
2022-11-28T12:24:04.227Z,99863.41
2022-11-28T12:29:30.786Z,99851.75
2022-11-28T12:35:01.579Z,99842.75
2022-11-28T12:40:07.752Z,99838.38
2022-11-28T12:45:36.805Z,99849.28
2022-11-28T12:50:39.876Z,99854.97
2022-11-28T12:56:04.090Z,99852.88
2022-11-28T13:01:26.408Z,99855.44
2022-11-28T13:06:40.845Z,99868.53
2022-11-28T13:11:50.978Z,99849.38
2022-11-28T13:16:53.665Z,99852.09
2022-11-28T13:22:05.144Z,99856.41
2022-11-28T13:27:13.477Z,99847.63
2022-11-28T13:32:33.587Z,99846.91
2022-11-28T13:43:08.629Z,99842.66
2022-11-28T13:54:19.086Z,99837.88
2022-11-28T13:59:21.510Z,99826.72
2022-11-28T14:04:22.879Z,99844.19
2022-11-28T14:09:30.260Z,99855.09
2022-11-28T14:14:55.882Z,99859.91
2022-11-28T14:20:12.234Z,99853.78
2022-11-28T14:25:26.465Z,99852.06
2022-11-28T14:30:40.941Z,99853.31
2022-11-28T14:35:54.437Z,99824.97
2022-11-28T14:40:56.063Z,99861.22
2022-11-28T14:46:16.247Z,99875.88
2022-11-28T14:51:17.747Z,99868.97
2022-11-28T14:56:24.768Z,99868.50
2022-11-28T15:01:41.387Z,99868.84
2022-11-28T15:06:42.780Z,99854.56
2022-11-28T15:12:13.405Z,99862.50
2022-11-28T15:17:14.853Z,99857.56
2022-11-28T15:22:32.907Z,99859.38
2022-11-28T15:27:34.683Z,99855.34
2022-11-28T15:32:36.046Z,99857.66
2022-11-28T15:37:37.408Z,99854.81
2022-11-28T15:42:38.823Z,99867.88
2022-11-28T15:47:40.190Z,99862.78
2022-11-28T15:53:12.869Z,99867.66
2022-11-28T15:58:28.489Z,99855.31
2022-11-28T16:03:34.744Z,99858.53
2022-11-28T16:08:40.715Z,99863.41
2022-11-28T16:13:43.243Z,99864.72
2022-11-28T16:19:16.863Z,99855.69
2022-11-28T16:24:36.921Z,99857.03
2022-11-28T16:29:44.637Z,99857.03
2022-11-28T16:34:50.590Z,99853.19
2022-11-28T16:40:00.956Z,99847.88
2022-11-28T16:45:19.214Z,99848.09
2022-11-28T16:50:23.747Z,99851.06
2022-11-28T16:55:31.571Z,99852.97
2022-11-28T17:00:36.359Z,99854.03
2022-11-28T17:05:37.736Z,99856.66
2022-11-28T17:10:39.103Z,99849.28
2022-11-28T17:15:40.465Z,99846.78
2022-11-28T17:20:41.833Z,99843.47
2022-11-28T17:25:43.207Z,99850.47
2022-11-28T17:30:44.609Z,99845.50
2022-11-28T17:35:47.669Z,99851.31
2022-11-28T17:40:49.044Z,99847.63
2022-11-28T17:45:50.637Z,99852.03
2022-11-28T17:50:52.999Z,99857.22
2022-11-28T17:55:59.218Z,99856.88
2022-11-28T18:01:01.149Z,99850.63
2022-11-28T18:06:02.709Z,99847.88
2022-11-28T18:11:08.751Z,99846.81
2022-11-28T18:16:11.521Z,99849.53
2022-11-28T18:21:13.089Z,99841.81
2022-11-28T18:26:19.235Z,99836.16
2022-11-28T18:31:22.502Z,99840.50
2022-11-28T18:36:25.362Z,99860.44
2022-11-28T18:41:26.755Z,99851.09
2022-11-28T18:46:28.809Z,99856.28
2022-11-28T18:51:31.885Z,99858.19
2022-11-28T18:56:33.299Z,99868.03
2022-11-28T19:01:34.832Z,99851.41
2022-11-28T19:06:36.523Z,99843.50
2022-11-28T19:11:38.174Z,99838.53
2022-11-28T19:16:39.577Z,99840.03
2022-11-28T19:21:41.007Z,99846.69
2022-11-28T19:26:42.375Z,99861.16
2022-11-28T19:31:44.020Z,99854.63
2022-11-28T19:36:46.866Z,99860.56
2022-11-28T19:41:48.455Z,99856.75
2022-11-28T19:46:50.294Z,99857.00
2022-11-28T19:51:51.844Z,99853.81
2022-11-28T19:56:55.803Z,99860.78
2022-11-28T20:01:57.260Z,99855.59
2022-11-28T20:06:58.685Z,99857.59
2022-11-28T20:12:00.088Z,99866.84
2022-11-28T20:17:01.496Z,99871.81
2022-11-28T20:22:02.896Z,99867.66
2022-11-28T20:27:04.267Z,99877.72
2022-11-28T20:32:05.866Z,99867.09
2022-11-28T20:37:07.276Z,99872.28
2022-11-28T20:42:09.180Z,99870.03
2022-11-28T20:47:11.526Z,99869.56
2022-11-28T20:52:12.894Z,99870.88
2022-11-28T20:57:21.453Z,99880.34
2022-11-28T21:02:23.817Z,99880.94
2022-11-28T21:07:26.823Z,99888.53
2022-11-28T21:12:28.269Z,99892.91
2022-11-28T21:17:29.652Z,99894.22
2022-11-28T21:22:31.014Z,99889.59
2022-11-28T21:27:32.403Z,99888.41
2022-11-28T21:32:33.815Z,99884.75
2022-11-28T21:37:35.183Z,99881.75
2022-11-28T21:42:36.556Z,99875.72
2022-11-28T21:47:37.935Z,99875.72
2022-11-28T21:52:39.314Z,99877.63
2022-11-28T21:57:42.071Z,99876.56
2022-11-28T22:02:46.348Z,99872.66
2022-11-28T22:07:47.854Z,99882.97
2022-11-28T22:12:49.268Z,99886.28
2022-11-28T22:17:50.653Z,99879.88
2022-11-28T22:22:52.056Z,99874.91
2022-11-28T22:27:53.423Z,99880.13
2022-11-28T22:32:55.316Z,99889.94
2022-11-28T22:37:56.695Z,99888.06
2022-11-28T22:42:58.082Z,99889.09
2022-11-28T22:47:59.489Z,99895.66
2022-11-28T22:53:00.868Z,99901.09
2022-11-28T22:58:02.244Z,99900.16
2022-11-28T23:03:03.732Z,99884.38
2022-11-28T23:08:05.228Z,99889.59
2022-11-28T23:13:06.655Z,99890.41
2022-11-28T23:18:08.035Z,99898.84
2022-11-28T23:23:09.399Z,99891.25
2022-11-28T23:28:10.759Z,99898.00
2022-11-28T23:33:12.173Z,99895.53
2022-11-28T23:38:15.467Z,99898.38
2022-11-28T23:43:16.849Z,99896.13
2022-11-28T23:48:18.395Z,99898.84
2022-11-28T23:53:19.784Z,99899.69
2022-11-28T23:58:21.187Z,99905.81
